createdAt,value
2022-11-22T00:00:51.212Z,96532.00
2022-11-22T00:03:19.293Z,96528.00
2022-11-22T00:05:47.111Z,96537.00
2022-11-22T00:08:14.523Z,96538.00
2022-11-22T00:10:42.017Z,96537.00
2022-11-22T00:13:09.714Z,96539.00
2022-11-22T00:15:37.161Z,96566.00
2022-11-22T00:18:04.673Z,96558.00
2022-11-22T00:20:32.120Z,96554.00
2022-11-22T00:22:59.602Z,96556.00
2022-11-22T00:25:27.636Z,96552.00
2022-11-22T00:27:55.238Z,96562.00
2022-11-22T00:30:22.849Z,96560.00
2022-11-22T00:32:50.332Z,96572.00
2022-11-22T00:35:17.659Z,96562.00
2022-11-22T00:37:45.016Z,96569.00
2022-11-22T00:40:12.603Z,96568.00
2022-11-22T00:42:39.924Z,96564.00
2022-11-22T00:45:08.484Z,96551.00
2022-11-22T00:47:36.346Z,96560.00
2022-11-22T00:50:05.523Z,96565.00
2022-11-22T00:52:33.128Z,96567.00
2022-11-22T00:55:00.440Z,96566.00
2022-11-22T00:57:27.703Z,96580.00
2022-11-22T00:59:55.066Z,96573.00
2022-11-22T01:02:22.431Z,96573.00
2022-11-22T01:04:49.808Z,96580.00
2022-11-22T01:07:17.160Z,96582.00
2022-11-22T01:09:44.508Z,96589.00
2022-11-22T01:12:11.891Z,96586.00
2022-11-22T01:14:39.203Z,96596.00
2022-11-22T01:17:06.707Z,96597.00
2022-11-22T01:19:34.027Z,96595.00
2022-11-22T01:22:01.396Z,96602.00
2022-11-22T01:24:28.727Z,96597.00
2022-11-22T01:26:56.464Z,96593.00
2022-11-22T01:29:23.870Z,96591.00
2022-11-22T01:31:51.213Z,96599.00
2022-11-22T01:34:18.570Z,96602.00
2022-11-22T01:36:45.898Z,96605.00
2022-11-22T01:39:13.300Z,96617.00
2022-11-22T01:41:40.639Z,96616.00
2022-11-22T01:44:33.175Z,96612.00
2022-11-22T01:47:14.329Z,96614.00
2022-11-22T01:50:05.447Z,96618.00
2022-11-22T01:52:34.735Z,96610.00
2022-11-22T01:55:13.014Z,96606.00
2022-11-22T01:57:44.068Z,96612.00
2022-11-22T02:00:17.242Z,96611.00
2022-11-22T02:02:57.547Z,96608.00
2022-11-22T02:05:31.174Z,96610.00
2022-11-22T02:08:34.346Z,96602.00
2022-11-22T02:11:03.830Z,96616.00
2022-11-22T02:13:37.746Z,96619.00
2022-11-22T02:16:05.691Z,96621.00
2022-11-22T02:18:37.151Z,96618.00
2022-11-22T02:21:05.959Z,96621.00
2022-11-22T02:24:19.397Z,96627.00
2022-11-22T02:26:46.841Z,96626.00
2022-11-22T02:29:14.882Z,96627.00
2022-11-22T02:31:47.606Z,96632.00
2022-11-22T02:34:16.592Z,96626.00
2022-11-22T02:36:54.818Z,96627.00
2022-11-22T02:39:31.733Z,96630.00
2022-11-22T02:41:59.545Z,96636.00
2022-11-22T02:44:27.039Z,96628.00
2022-11-22T02:46:55.705Z,96633.00
2022-11-22T02:49:25.956Z,96641.00
2022-11-22T02:51:53.986Z,96634.00
2022-11-22T02:54:22.125Z,96643.00
2022-11-22T02:56:49.662Z,96645.00
2022-11-22T02:59:17.007Z,96632.00
2022-11-22T03:01:46.611Z,96629.00
2022-11-22T03:04:24.699Z,96631.00
2022-11-22T03:06:59.203Z,96620.00
2022-11-22T03:09:28.166Z,96625.00
2022-11-22T03:11:55.844Z,96619.00
2022-11-22T03:14:23.329Z,96625.00
2022-11-22T03:16:50.773Z,96627.00
2022-11-22T03:19:18.361Z,96636.00
2022-11-22T03:21:45.820Z,96636.00
2022-11-22T03:24:13.410Z,96638.00
2022-11-22T03:26:40.795Z,96643.00
2022-11-22T03:29:08.110Z,96640.00
2022-11-22T03:31:35.877Z,96640.00
2022-11-22T03:34:03.246Z,96633.00
2022-11-22T03:36:30.619Z,96639.00
2022-11-22T03:38:59.209Z,96635.00
2022-11-22T03:41:26.554Z,96630.00
2022-11-22T03:43:53.876Z,96637.00
2022-11-22T03:46:21.545Z,96635.00
2022-11-22T03:48:48.951Z,96640.00
2022-11-22T03:51:16.314Z,96632.00
2022-11-22T03:53:43.772Z,96651.00
2022-11-22T03:56:11.212Z,96652.00
2022-11-22T03:58:38.556Z,96644.00
2022-11-22T04:01:05.963Z,96652.00
2022-11-22T04:03:33.739Z,96646.00
2022-11-22T04:06:01.163Z,96645.00
2022-11-22T04:08:28.518Z,96642.00
2022-11-22T04:10:55.895Z,96653.00
2022-11-22T04:13:43.162Z,96642.00
2022-11-22T04:16:10.537Z,96657.00
2022-11-22T04:18:38.007Z,96666.00
2022-11-22T04:21:23.810Z,96655.00
2022-11-22T04:24:11.089Z,96659.00
2022-11-22T04:26:38.503Z,96663.00
2022-11-22T04:29:10.351Z,96666.00
2022-11-22T04:31:57.099Z,96659.00
2022-11-22T04:34:24.695Z,96662.00
2022-11-22T04:36:52.241Z,96659.00
2022-11-22T04:39:19.603Z,96672.00
2022-11-22T04:41:47.004Z,96664.00
2022-11-22T04:44:33.231Z,96673.00
2022-11-22T04:47:00.579Z,96664.00
2022-11-22T04:49:28.397Z,96673.00
2022-11-22T04:52:14.554Z,96683.00
2022-11-22T04:54:41.900Z,96688.00
2022-11-22T04:57:09.922Z,96685.00
2022-11-22T04:59:37.216Z,96696.00
2022-11-22T05:02:04.674Z,96695.00
2022-11-22T05:04:32.230Z,96697.00
2022-11-22T05:06:59.631Z,96701.00
2022-11-22T05:09:27.167Z,96701.00
2022-11-22T05:11:54.812Z,96702.00
2022-11-22T05:14:22.197Z,96702.00
2022-11-22T05:16:49.579Z,96709.00
2022-11-22T05:19:16.911Z,96714.00
2022-11-22T05:21:44.276Z,96707.00
2022-11-22T05:24:11.696Z,96701.00
2022-11-22T05:26:39.411Z,96701.00
2022-11-22T05:29:10.826Z,96706.00
2022-11-22T05:31:40.072Z,96708.00
2022-11-22T05:34:07.708Z,96706.00
2022-11-22T05:36:36.074Z,96714.00
2022-11-22T05:39:03.983Z,96711.00
2022-11-22T05:41:31.303Z,96726.00
2022-11-22T05:43:59.030Z,96726.00
2022-11-22T05:46:31.242Z,96735.00
2022-11-22T05:48:59.602Z,96739.00
2022-11-22T05:51:34.654Z,96725.00
2022-11-22T05:54:03.621Z,96733.00
2022-11-22T05:56:30.983Z,96727.00
2022-11-22T05:58:58.774Z,96721.00
2022-11-22T06:01:26.454Z,96726.00
2022-11-22T06:03:54.656Z,96727.00
2022-11-22T06:06:22.234Z,96722.00
2022-11-22T06:08:51.182Z,96726.00
2022-11-22T06:11:25.919Z,96723.00
2022-11-22T06:14:05.288Z,96726.00
2022-11-22T06:16:32.789Z,96731.00
2022-11-22T06:19:00.139Z,96736.00
2022-11-22T06:21:28.909Z,96740.00
2022-11-22T06:23:56.635Z,96723.00
2022-11-22T06:26:26.013Z,96727.00
2022-11-22T06:28:55.212Z,96732.00
2022-11-22T06:31:27.125Z,96728.00
2022-11-22T06:33:59.651Z,96736.00
2022-11-22T06:36:34.466Z,96740.00
2022-11-22T06:39:04.623Z,96744.00
2022-11-22T06:41:38.002Z,96750.00
2022-11-22T06:44:09.511Z,96758.00
2022-11-22T06:46:38.912Z,96753.00
2022-11-22T06:49:06.407Z,96755.00
2022-11-22T06:51:34.086Z,96764.00
2022-11-22T06:54:01.597Z,96774.00
2022-11-22T06:56:37.110Z,96784.00
2022-11-22T06:59:07.489Z,96786.00
2022-11-22T07:01:37.687Z,96794.00
2022-11-22T07:04:05.936Z,96799.00
2022-11-22T07:06:38.477Z,96802.00
2022-11-22T07:09:12.048Z,96810.00
2022-11-22T07:11:40.794Z,96801.00
2022-11-22T07:14:09.325Z,96808.00
2022-11-22T07:16:38.979Z,96803.00
2022-11-22T07:19:07.457Z,96812.00
2022-11-22T07:21:37.371Z,96810.00
2022-11-22T07:24:07.073Z,96815.00
2022-11-22T07:26:34.584Z,96819.00
2022-11-22T07:29:01.939Z,96826.00
2022-11-22T07:31:32.130Z,96819.00
2022-11-22T07:33:59.649Z,96817.00
2022-11-22T07:36:29.502Z,96832.00
2022-11-22T07:38:57.622Z,96832.00
2022-11-22T07:41:25.092Z,96833.00
2022-11-22T07:43:53.116Z,96842.00
2022-11-22T07:46:29.986Z,96827.00
2022-11-22T07:49:02.642Z,96825.00
2022-11-22T07:51:30.809Z,96835.00
2022-11-22T07:53:58.373Z,96825.00
2022-11-22T07:56:25.918Z,96831.00
2022-11-22T07:58:54.785Z,96830.00
2022-11-22T08:01:23.660Z,96838.00
2022-11-22T08:03:51.196Z,96835.00
2022-11-22T08:06:18.602Z,96854.00
2022-11-22T08:08:45.923Z,96842.00
2022-11-22T08:11:13.456Z,96842.00
2022-11-22T08:13:41.294Z,96847.00
2022-11-22T08:16:17.632Z,96833.00
2022-11-22T08:18:50.212Z,96849.00
2022-11-22T08:21:19.359Z,96838.00
2022-11-22T08:23:48.761Z,96847.00
2022-11-22T08:26:18.812Z,96838.00
2022-11-22T08:28:46.409Z,96845.00
2022-11-22T08:31:19.795Z,96836.00
2022-11-22T08:33:48.816Z,96850.00
2022-11-22T08:36:16.267Z,96847.00
2022-11-22T08:38:43.867Z,96854.00
2022-11-22T08:41:30.429Z,96864.00
2022-11-22T08:44:09.087Z,96844.00
2022-11-22T08:46:56.948Z,96845.00
2022-11-22T08:49:33.739Z,96836.00
2022-11-22T08:52:23.543Z,96839.00
2022-11-22T08:55:01.420Z,96835.00
2022-11-22T08:57:44.646Z,96831.00
2022-11-22T09:00:44.659Z,96832.00
2022-11-22T09:03:17.798Z,96837.00
2022-11-22T09:09:40.676Z,96843.00
2022-11-22T09:12:27.915Z,96852.00
2022-11-22T09:18:43.192Z,96839.00
2022-11-22T09:22:02.555Z,96843.00
2022-11-22T09:24:58.875Z,96851.00
2022-11-22T09:27:45.662Z,96846.00
2022-11-22T09:30:34.690Z,96850.00
2022-11-22T09:33:26.906Z,96855.00
2022-11-22T09:36:48.313Z,96868.00
2022-11-22T09:39:29.751Z,96862.00
2022-11-22T09:46:55.747Z,96874.00
2022-11-22T09:50:44.552Z,96866.00
2022-11-22T09:58:01.080Z,96871.00
2022-11-22T10:00:56.735Z,96882.00
2022-11-22T10:04:35.198Z,96879.00
2022-11-22T10:07:42.462Z,96880.00
2022-11-22T10:10:24.852Z,96888.00
2022-11-22T10:13:05.880Z,96883.00
2022-11-22T10:16:22.539Z,96890.00
2022-11-22T10:19:22.520Z,96878.00
2022-11-22T10:21:50.426Z,96889.00
2022-11-22T10:24:19.805Z,96883.00
2022-11-22T10:26:47.823Z,96890.00
2022-11-22T10:29:39.632Z,96882.00
2022-11-22T10:33:02.136Z,96865.00
2022-11-22T10:36:00.094Z,96863.00
2022-11-22T10:39:22.975Z,96866.00
2022-11-22T10:42:34.446Z,96871.00
2022-11-22T10:46:01.351Z,96860.00
2022-11-22T10:48:59.956Z,96863.00
2022-11-22T10:52:04.152Z,96861.00
2022-11-22T10:55:16.759Z,96870.00
2022-11-22T10:58:01.936Z,96869.00
2022-11-22T11:00:33.343Z,96876.00
2022-11-22T11:03:32.010Z,96873.00
2022-11-22T11:06:56.883Z,96857.00
2022-11-22T11:10:14.733Z,96871.00
2022-11-22T11:13:02.773Z,96863.00
2022-11-22T11:15:54.299Z,96861.00
2022-11-22T11:18:51.794Z,96862.00
2022-11-22T11:21:19.230Z,96853.00
2022-11-22T11:23:48.173Z,96851.00
2022-11-22T11:26:34.687Z,96846.00
2022-11-22T11:29:17.159Z,96847.00
2022-11-22T11:31:51.650Z,96851.00
2022-11-22T11:34:29.659Z,96847.00
2022-11-22T11:36:59.608Z,96858.00
2022-11-22T11:39:36.261Z,96858.00
2022-11-22T11:42:29.368Z,96864.00
2022-11-22T11:45:25.305Z,96870.00
2022-11-22T11:47:52.673Z,96851.00
2022-11-22T11:50:28.235Z,96855.00
2022-11-22T11:53:15.852Z,96858.00
2022-11-22T11:55:43.243Z,96849.00
2022-11-22T11:58:29.213Z,96847.00
2022-11-22T12:00:57.838Z,96846.00
2022-11-22T12:03:26.164Z,96838.00
2022-11-22T12:06:14.086Z,96833.00
2022-11-22T12:08:42.147Z,96833.00
2022-11-22T12:11:26.460Z,96828.00
2022-11-22T12:14:19.667Z,96828.00
2022-11-22T12:16:54.235Z,96833.00
2022-11-22T12:19:40.995Z,96818.00
2022-11-22T12:23:14.355Z,96818.00
2022-11-22T12:25:43.205Z,96811.00
2022-11-22T12:28:27.619Z,96821.00
2022-11-22T12:31:23.849Z,96821.00
2022-11-22T12:34:03.760Z,96804.00
2022-11-22T12:36:54.258Z,96808.00
2022-11-22T12:39:29.291Z,96812.00
2022-11-22T12:42:33.116Z,96792.00
2022-11-22T12:45:41.184Z,96785.00
2022-11-22T12:48:33.384Z,96752.00
2022-11-22T12:51:15.163Z,96769.00
2022-11-22T12:53:45.733Z,96778.00
2022-11-22T12:56:38.914Z,96780.00
2022-11-22T12:59:27.332Z,96776.00
2022-11-22T13:02:58.674Z,96789.00
2022-11-22T13:05:44.778Z,96782.00
2022-11-22T13:08:53.840Z,96780.00
2022-11-22T13:11:58.390Z,96776.00
2022-11-22T13:14:56.036Z,96775.00
2022-11-22T13:17:27.082Z,96777.00
2022-11-22T13:20:44.972Z,96776.00
2022-11-22T13:23:56.088Z,96784.00
2022-11-22T13:27:17.966Z,96783.00
2022-11-22T13:29:47.532Z,96777.00
2022-11-22T13:32:19.978Z,96778.00
2022-11-22T13:35:12.817Z,96782.00
2022-11-22T13:38:12.602Z,96783.00
2022-11-22T13:40:52.368Z,96787.00
2022-11-22T13:44:26.599Z,96784.00
2022-11-22T13:47:25.291Z,96788.00
2022-11-22T13:49:56.424Z,96775.00
2022-11-22T13:52:25.289Z,96782.00
2022-11-22T13:54:58.717Z,96778.00
2022-11-22T13:57:41.432Z,96770.00
2022-11-22T14:00:14.803Z,96773.00
2022-11-22T14:03:41.187Z,96784.00
2022-11-22T14:06:31.498Z,96782.00
2022-11-22T14:09:44.192Z,96783.00
2022-11-22T14:12:11.598Z,96792.00
2022-11-22T14:15:47.937Z,96789.00
2022-11-22T14:19:17.647Z,96783.00
2022-11-22T14:22:47.340Z,96787.00
2022-11-22T14:26:08.630Z,96788.00
2022-11-22T14:29:16.002Z,96796.00
2022-11-22T14:31:52.234Z,96794.00
2022-11-22T14:34:30.286Z,96795.00
2022-11-22T14:37:13.010Z,96798.00
2022-11-22T14:39:53.376Z,96799.00
2022-11-22T14:42:47.215Z,96804.00
2022-11-22T14:45:52.329Z,96803.00
2022-11-22T14:48:32.115Z,96812.00
2022-11-22T14:51:15.782Z,96810.00
2022-11-22T14:54:07.707Z,96833.00
2022-11-22T14:56:36.637Z,96819.00
2022-11-22T15:00:02.708Z,96828.00
2022-11-22T15:03:15.245Z,96824.00
2022-11-22T15:09:15.368Z,96828.00
2022-11-22T15:10:03.365Z,96828.00
2022-11-22T15:13:39.053Z,96837.00
2022-11-22T15:57:45.533Z,96893.00
2022-11-22T16:00:29.518Z,96896.00
2022-11-22T16:03:06.665Z,96908.00
2022-11-22T16:06:07.397Z,96908.00
2022-11-22T16:08:30.856Z,96897.00
2022-11-22T16:11:00.084Z,96905.00
2022-11-22T16:13:36.051Z,96905.00
2022-11-22T16:16:12.630Z,96914.00
2022-11-22T16:18:42.675Z,96929.00
2022-11-22T16:21:15.453Z,96929.00
2022-11-22T16:23:47.285Z,96928.00
2022-11-22T16:26:29.538Z,96925.00
2022-11-22T16:29:29.377Z,96929.00
2022-11-22T16:32:13.712Z,96925.00
2022-11-22T16:34:43.279Z,96936.00
2022-11-22T16:37:36.202Z,96939.00
2022-11-22T16:40:06.134Z,96922.00
2022-11-22T16:42:35.438Z,96935.00
2022-11-22T16:45:04.473Z,96922.00
2022-11-22T16:47:32.030Z,96928.00
2022-11-22T16:49:59.615Z,96929.00
2022-11-22T16:52:26.973Z,96937.00
2022-11-22T16:54:54.332Z,96945.00
2022-11-22T16:57:21.715Z,96932.00
2022-11-22T16:59:49.042Z,96936.00
2022-11-22T17:02:18.170Z,96934.00
2022-11-22T17:04:46.872Z,96941.00
2022-11-22T17:07:16.050Z,96939.00
2022-11-22T17:09:43.636Z,96946.00
2022-11-22T17:12:29.091Z,96947.00
2022-11-22T17:14:59.696Z,96954.00
2022-11-22T17:17:27.124Z,96965.00
2022-11-22T17:19:54.491Z,96958.00
2022-11-22T17:22:21.932Z,96966.00
2022-11-22T17:24:49.360Z,96969.00
2022-11-22T17:27:16.673Z,96975.00
2022-11-22T17:29:51.493Z,96972.00
2022-11-22T17:32:20.596Z,96980.00
2022-11-22T17:34:47.948Z,96976.00
2022-11-22T17:37:15.261Z,96970.00
2022-11-22T17:39:42.643Z,96979.00
2022-11-22T17:42:12.072Z,96979.00
2022-11-22T17:44:39.463Z,96973.00
2022-11-22T17:47:06.816Z,96980.00
2022-11-22T17:49:34.561Z,96975.00
2022-11-22T17:52:02.030Z,96978.00
2022-11-22T17:54:29.376Z,96980.00
2022-11-22T17:56:56.716Z,96981.00
2022-11-22T17:59:24.088Z,96981.00
2022-11-22T18:01:51.487Z,96981.00
2022-11-22T18:04:18.971Z,96967.00
2022-11-22T18:06:46.266Z,96971.00
2022-11-22T18:09:13.667Z,96973.00
2022-11-22T18:11:40.966Z,96978.00
2022-11-22T18:14:09.919Z,96982.00
2022-11-22T18:16:37.800Z,96984.00
2022-11-22T18:19:05.203Z,96989.00
2022-11-22T18:21:33.315Z,96978.00
2022-11-22T18:24:01.897Z,96996.00
2022-11-22T18:26:44.923Z,96989.00
2022-11-22T18:32:02.600Z,96991.00
2022-11-22T18:34:30.958Z,96984.00
2022-11-22T18:37:02.495Z,96977.00
2022-11-22T18:39:39.194Z,96978.00
2022-11-22T18:42:14.993Z,96986.00
2022-11-22T18:44:42.500Z,97001.00
2022-11-22T18:47:09.976Z,96997.00
2022-11-22T18:49:37.760Z,97010.00
2022-11-22T18:52:05.671Z,97000.00
2022-11-22T18:54:33.698Z,97011.00
2022-11-22T18:57:01.690Z,97012.00
2022-11-22T18:59:29.119Z,97011.00
2022-11-22T19:01:56.549Z,97017.00
2022-11-22T19:04:23.884Z,97020.00
2022-11-22T19:06:51.702Z,97015.00
2022-11-22T19:09:19.103Z,97008.00
2022-11-22T19:11:46.416Z,97016.00
2022-11-22T19:14:13.771Z,97019.00
2022-11-22T19:16:42.049Z,97015.00
2022-11-22T19:19:12.008Z,97014.00
2022-11-22T19:21:39.663Z,97022.00
2022-11-22T19:24:07.106Z,97023.00
2022-11-22T19:26:34.589Z,97028.00
2022-11-22T19:29:02.857Z,97029.00
2022-11-22T19:31:31.544Z,97029.00
2022-11-22T19:34:00.161Z,97042.00
2022-11-22T19:36:36.411Z,97036.00
2022-11-22T19:39:14.355Z,97041.00
2022-11-22T19:41:44.201Z,97039.00
2022-11-22T19:44:12.210Z,97029.00
2022-11-22T19:46:41.412Z,97033.00
2022-11-22T19:49:10.105Z,97034.00
2022-11-22T19:51:39.719Z,97036.00
2022-11-22T19:54:09.042Z,97037.00
2022-11-22T19:56:40.534Z,97035.00
2022-11-22T19:59:17.855Z,97039.00
2022-11-22T20:01:48.528Z,97042.00
2022-11-22T20:04:17.346Z,97044.00
2022-11-22T20:06:49.922Z,97047.00
2022-11-22T20:09:17.751Z,97045.00
2022-11-22T20:11:45.649Z,97048.00
2022-11-22T20:14:13.017Z,97054.00
2022-11-22T20:16:41.711Z,97048.00
2022-11-22T20:19:11.340Z,97051.00
2022-11-22T20:21:39.608Z,97056.00
2022-11-22T20:24:07.732Z,97041.00
2022-11-22T20:26:35.718Z,97047.00
2022-11-22T20:29:13.678Z,97054.00
2022-11-22T20:31:41.359Z,97053.00
2022-11-22T20:34:10.404Z,97056.00
2022-11-22T20:36:37.743Z,97059.00
2022-11-22T20:39:10.392Z,97061.00
2022-11-22T20:41:39.324Z,97063.00
2022-11-22T20:44:13.703Z,97062.00
2022-11-22T20:46:41.777Z,97055.00
2022-11-22T20:49:09.207Z,97051.00
2022-11-22T20:51:39.548Z,97066.00
2022-11-22T20:54:08.521Z,97070.00
2022-11-22T20:56:37.974Z,97070.00
2022-11-22T20:59:05.932Z,97069.00
2022-11-22T21:01:33.471Z,97074.00
2022-11-22T21:04:01.206Z,97080.00
2022-11-22T21:06:29.286Z,97079.00
2022-11-22T21:08:56.711Z,97089.00
2022-11-22T21:11:30.956Z,97086.00
2022-11-22T21:13:59.079Z,97088.00
2022-11-22T21:16:29.780Z,97089.00
2022-11-22T21:19:06.680Z,97090.00
2022-11-22T21:21:36.472Z,97087.00
2022-11-22T21:24:06.863Z,97085.00
2022-11-22T21:26:35.083Z,97079.00
2022-11-22T21:29:04.811Z,97094.00
2022-11-22T21:31:32.192Z,97090.00
2022-11-22T21:33:59.582Z,97091.00
2022-11-22T21:36:27.000Z,97085.00
2022-11-22T21:38:54.348Z,97088.00
2022-11-22T21:44:10.978Z,97102.00
2022-11-22T21:46:38.640Z,97091.00
2022-11-22T21:49:06.742Z,97102.00
2022-11-22T21:51:34.072Z,97104.00
2022-11-22T21:54:03.363Z,97099.00
2022-11-22T21:56:31.670Z,97092.00
2022-11-22T21:58:59.788Z,97096.00
2022-11-22T22:01:27.727Z,97094.00
2022-11-22T22:03:55.254Z,97097.00
2022-11-22T22:06:23.417Z,97104.00
2022-11-22T22:08:50.781Z,97102.00
2022-11-22T22:11:18.196Z,97105.00
2022-11-22T22:13:45.751Z,97103.00
2022-11-22T22:16:18.749Z,97101.00
2022-11-22T22:18:47.157Z,97112.00
2022-11-22T22:21:18.015Z,97105.00
2022-11-22T22:23:46.342Z,97108.00
2022-11-22T22:26:17.444Z,97106.00
2022-11-22T22:28:45.906Z,97108.00
2022-11-22T22:31:22.427Z,97106.00
2022-11-22T22:33:55.429Z,97110.00
2022-11-22T22:36:26.885Z,97110.00
2022-11-22T22:38:55.051Z,97112.00
2022-11-22T22:41:22.471Z,97107.00
2022-11-22T22:43:49.973Z,97111.00
2022-11-22T22:46:24.891Z,97115.00
2022-11-22T22:48:54.979Z,97106.00
2022-11-22T22:51:33.091Z,97115.00
2022-11-22T22:54:01.722Z,97100.00
2022-11-22T22:56:31.436Z,97108.00
2022-11-22T22:59:00.991Z,97115.00
2022-11-22T23:01:31.870Z,97108.00
2022-11-22T23:04:01.941Z,97117.00
2022-11-22T23:06:35.472Z,97118.00
2022-11-22T23:09:08.715Z,97110.00
2022-11-22T23:11:55.707Z,97117.00
2022-11-22T23:14:28.395Z,97111.00
2022-11-22T23:16:58.171Z,97121.00
2022-11-22T23:19:27.423Z,97119.00
2022-11-22T23:21:56.367Z,97127.00
2022-11-22T23:24:23.863Z,97133.00
2022-11-22T23:26:51.444Z,97125.00
2022-11-22T23:29:18.984Z,97121.00
2022-11-22T23:31:46.275Z,97121.00
2022-11-22T23:34:13.680Z,97120.00
2022-11-22T23:36:41.440Z,97130.00
2022-11-22T23:39:10.070Z,97131.00
2022-11-22T23:41:37.767Z,97125.00
2022-11-22T23:44:05.739Z,97115.00
2022-11-22T23:46:33.107Z,97121.00
2022-11-22T23:49:03.624Z,97129.00
2022-11-22T23:51:33.018Z,97121.00
2022-11-22T23:54:06.179Z,97123.00
2022-11-22T23:56:36.306Z,97120.00
2022-11-22T23:59:05.612Z,97123.00
